ADDS METAR Data INFO
IDs: Format: Raw Decoded Include TAF

Data at: 1231 UTC 25 Jul 2017

KDGW 251153Z AUTO 32009KT 10SM CLR 19/07 A3004 RMK AO2 SLP095 T01890067 10217 20156 53013
KDGW 251053Z AUTO 34007KT 10SM CLR 18/06 A3001 RMK AO2 SLP086 T01830061
KDGW 250953Z AUTO 33009KT 10SM CLR 18/06 A2999 RMK AO2 SLP081 T01780056
KDGW 250853Z AUTO 30005KT 10SM CLR 16/06 A2999 RMK AO2 SLP083 T01610056 53004
KDGW 250753Z AUTO 00000KT 10SM CLR 20/04 A2998 RMK AO2 SLP075 T02000039
KDGW 250653Z AUTO 31003KT 10SM CLR 19/04 A2998 RMK AO2 SLP078 T01890044 403720139
KDGW 250553Z AUTO 00000KT 10SM CLR 21/04 A2998 RMK AO2 SLP075 T02110039 10356 20211 51006
KDGW 250453Z AUTO 00000KT 10SM CLR 24/03 A2998 RMK AO2 SLP070 T02440033
KDGW 250353Z AUTO 12004KT 10SM CLR 24/02 A2997 RMK AO2 SLP073 T02440022
KDGW 250253Z AUTO 19005KT 10SM CLR 26/03 A2996 RMK AO2 SLP071 T02610033 53003
KDGW 250153Z AUTO 22006KT 10SM CLR 29/02 A2995 RMK AO2 SLP070 T02940022
KDGW 250053Z AUTO 24006KT 10SM CLR 32/M01 A2995 RMK AO2 SLP072 T03221006
KDGW 242353Z AUTO 24005KT 10SM CLR 36/M03 A2995 RMK AO2 SLP071 T03561028 10372 20339 56010
KDGW 242253Z AUTO 27014G17KT 10SM CLR 37/M03 A2996 RMK AO2 SLP071 T03721028
KDGW 242153Z AUTO 26013G16KT 10SM CLR 37/M03 A2997 RMK AO2 SLP075 T03671033
KDGW 242053Z AUTO 31010G24KT 10SM CLR 36/M02 A2998 RMK AO2 SLP076 T03611022 58009
KDGW 241953Z AUTO 30014G19KT 10SM CLR 37/M01 A3000 RMK AO2 SLP080 T03671011
KDGW 241853Z AUTO 31014G19KT 10SM CLR 35/M02 A3000 RMK AO2 SLP081 T03501022
KDGW 241753Z AUTO 32013KT 10SM CLR 34/M01 A3001 RMK AO2 SLP087 T03441011 10344 20139 56008
KDGW 241653Z AUTO 27010KT 10SM CLR 34/00 A3002 RMK AO2 SLP087 T03390000
KDGW 241553Z AUTO 31008KT 10SM CLR 31/06 A3002 RMK AO2 SLP090 T03060061
KDGW 241453Z AUTO 31004KT 10SM CLR 26/06 A3004 RMK AO2 SLP098 T02560056 51005
KDGW 241353Z AUTO 33007KT 10SM CLR 21/04 A3004 RMK AO2 SLP098 T02110044
KDGW 241253Z AUTO 36007KT 10SM CLR 17/07 A3004 RMK AO2 SLP101 T01670072 $
KDGW 241153Z AUTO 00000KT 10SM 14/08 A3002 RMK AO2 SLP099 T01440083 10222 20139 $
KDGW 241053Z AUTO 32003KT 10SM CLR 14/08 A3001 RMK AO2 SLP094 T01440078
KDGW 240953Z AUTO 00000KT 10SM CLR 16/08 A3000 RMK AO2 SLP088 T01560078
KDGW 240853Z AUTO 12005KT 10SM CLR 19/07 A3000 RMK AO2 SLP083 T01890072 53001
KDGW 240753Z AUTO 11008KT 10SM CLR 19/08 A2999 RMK AO2 SLP079 T01940078
KDGW 240653Z AUTO 14005KT 10SM CLR 21/08 A2998 RMK AO2 SLP079 T02110078 403500117
KDGW 240553Z AUTO 12007KT 10SM CLR 21/08 A2999 RMK AO2 SLP083 T02110083 10344 20211 58006
KDGW 240453Z AUTO 14009KT 10SM CLR 24/07 A3000 RMK AO2 SLP086 T02390072
KDGW 240353Z AUTO 14009KT 10SM CLR 25/08 A3001 RMK AO2 SLP093 T02500083
KDGW 240253Z AUTO 14011KT 10SM CLR 27/07 A3001 RMK AO2 SLP095 T02720072 56006
KDGW 240153Z AUTO 13011KT 10SM CLR 31/04 A3001 RMK AO2 SLP095 T03110044
KDGW 240053Z AUTO 12014KT 10SM CLR 33/02 A3002 RMK AO2 SLP098 T03280017